Hope, North Dakota
Current Conditions -  °F | °C
As of 7:58 AM on Monday 26 Jan 2015 (Local Time) from KRDR Reporting Station
Clear Clear  
Wind Chill: 27°   Ceiling: Unl
Heat Index: 36°   Visibility: 10mi
Dew Point: 29°   Wind: 14mph
Humidity: 77%   Direction: 320°NW
Pressure: 29.7"   Gusts: NA
Location:  47.32°N, 97.72°W
Report Text: KRDR 261358Z AUTO 32012KT 10SM CLR 02/M02 A2970 RMK AO2 SLP073 T00201016 $
Loading
Personal Weather Stations






























Interactive Weather Map New forecast layout! Learn more

10-Day Weather Forecast

Advertisements
Track Severe Weather on mobile